CFG1WN EDDF-LIRF
Flight info
| Callsign | CFG1WN |
|---|---|
| Flight time | 1h 55m |
| Altitude | 37000 |
| Route | CINDY8S/18 CINDY Z74 LAMPU DCT NOMBO Y161 RIDAR DCT KONIN DCT BERAS DCT LIKDA DCT BAKOR DCT VESAL DCT VIC DCT KOPER DCT SUKOM DCT GAVRA DCT RITEB |
| Aircraft | A321/M-SDE3FGHIRWY/LB1 |
Departure
| Time | 2026-05-07 14:01 |
|---|---|
| Airport | Frankfurt Main Airport (EDDF) |
Arrival
| Time | 2026-05-07 15:57 |
|---|---|
| Airport | Rome–Fiumicino Leonardo da Vinci International Airport (LIRF) |
| Time | Latitude | Longitude | Altitude | Speed | Heading |
|---|---|---|---|---|---|
| 2026-05-07 13:32 | 50.04124 | 8.55820 | 352 ft | 0 kts | 160° |
| 2026-05-07 13:52 | 50.04112 | 8.55827 | 352 ft | 4 kts | 159° |
| 2026-05-07 13:52 | 50.04067 | 8.55853 | 359 ft | 10 kts | 159° |
| 2026-05-07 13:53 | 50.04043 | 8.55920 | 356 ft | 8 kts | 66° |
| 2026-05-07 13:53 | 50.04096 | 8.55967 | 355 ft | 11 kts | 349° |
| 2026-05-07 13:53 | 50.04184 | 8.55921 | 359 ft | 16 kts | 336° |
| 2026-05-07 13:53 | 50.04197 | 8.55780 | 360 ft | 13 kts | 242° |
| 2026-05-07 13:54 | 50.04162 | 8.55619 | 358 ft | 19 kts | 248° |
| 2026-05-07 13:54 | 50.04113 | 8.55408 | 353 ft | 21 kts | 249° |
| 2026-05-07 13:54 | 50.04064 | 8.55203 | 357 ft | 20 kts | 249° |
| 2026-05-07 13:54 | 50.04016 | 8.55006 | 356 ft | 19 kts | 249° |
| 2026-05-07 13:55 | 50.03967 | 8.54806 | 356 ft | 20 kts | 249° |
| 2026-05-07 13:55 | 50.03918 | 8.54597 | 353 ft | 21 kts | 250° |
| 2026-05-07 13:55 | 50.03866 | 8.54378 | 357 ft | 22 kts | 250° |
| 2026-05-07 13:55 | 50.03795 | 8.54195 | 351 ft | 19 kts | 261° |
| 2026-05-07 13:56 | 50.03749 | 8.54009 | 351 ft | 18 kts | 249° |
| 2026-05-07 13:56 | 50.03704 | 8.53823 | 348 ft | 19 kts | 249° |
| 2026-05-07 13:56 | 50.03657 | 8.53632 | 346 ft | 19 kts | 249° |
| 2026-05-07 13:56 | 50.03610 | 8.53440 | 339 ft | 19 kts | 249° |
| 2026-05-07 13:57 | 50.03562 | 8.53247 | 336 ft | 19 kts | 249° |
| 2026-05-07 13:57 | 50.03516 | 8.53053 | 335 ft | 19 kts | 251° |
| 2026-05-07 13:57 | 50.03469 | 8.52851 | 335 ft | 20 kts | 246° |
| 2026-05-07 13:57 | 50.03429 | 8.52715 | 333 ft | 0 kts | 245° |
| 2026-05-07 13:58 | 50.03406 | 8.52636 | 333 ft | 20 kts | 244° |
| 2026-05-07 13:59 | 50.03343 | 8.52594 | 336 ft | 0 kts | 178° |
| 2026-05-07 14:00 | 50.03342 | 8.52594 | 336 ft | 2 kts | 178° |
| 2026-05-07 14:00 | 50.03166 | 8.52595 | 336 ft | 61 kts | 179° |
| 2026-05-07 14:00 | 50.02521 | 8.52597 | 333 ft | 121 kts | 179° |
| 2026-05-07 14:00 | 50.01513 | 8.52608 | 345 ft | 165 kts | 182° |
| 2026-05-07 14:01 | 50.00363 | 8.52612 | 874 ft | 163 kts | 183° |
| 2026-05-07 14:01 | 49.99258 | 8.52594 | 1634 ft | 155 kts | 181° |
| 2026-05-07 14:01 | 49.98193 | 8.52594 | 2262 ft | 153 kts | 179° |
| 2026-05-07 14:01 | 49.97119 | 8.53009 | 2612 ft | 170 kts | 154° |
| 2026-05-07 14:02 | 49.96131 | 8.54200 | 2859 ft | 191 kts | 129° |
| 2026-05-07 14:02 | 49.95409 | 8.56064 | 3034 ft | 212 kts | 118° |
| 2026-05-07 14:02 | 49.94674 | 8.58136 | 3285 ft | 221 kts | 118° |
| 2026-05-07 14:02 | 49.94119 | 8.60442 | 3481 ft | 238 kts | 100° |
| 2026-05-07 14:03 | 49.93973 | 8.63093 | 3796 ft | 257 kts | 91° |
| 2026-05-07 14:03 | 49.93864 | 8.65939 | 4452 ft | 268 kts | 95° |
| 2026-05-07 14:03 | 49.93354 | 8.68751 | 5286 ft | 274 kts | 116° |
| 2026-05-07 14:03 | 49.92226 | 8.71152 | 6129 ft | 278 kts | 137° |
| 2026-05-07 14:04 | 49.90676 | 8.72966 | 6939 ft | 281 kts | 146° |
| 2026-05-07 14:04 | 49.89107 | 8.74807 | 7741 ft | 285 kts | 137° |
| 2026-05-07 14:04 | 49.87824 | 8.77179 | 8535 ft | 290 kts | 122° |
| 2026-05-07 14:04 | 49.86828 | 8.79924 | 9323 ft | 293 kts | 118° |
| 2026-05-07 14:05 | 49.85832 | 8.82710 | 10092 ft | 298 kts | 119° |
| 2026-05-07 14:05 | 49.84810 | 8.85546 | 10590 ft | 311 kts | 119° |
| 2026-05-07 14:05 | 49.83714 | 8.88579 | 10781 ft | 334 kts | 119° |
| 2026-05-07 14:05 | 49.82539 | 8.91816 | 10982 ft | 351 kts | 119° |
| 2026-05-07 14:06 | 49.81327 | 8.95136 | 11046 ft | 355 kts | 119° |
| 2026-05-07 14:06 | 49.80110 | 8.98455 | 11065 ft | 357 kts | 120° |
| 2026-05-07 14:06 | 49.78874 | 9.01831 | 11729 ft | 360 kts | 119° |
| 2026-05-07 14:06 | 49.77641 | 9.05210 | 12495 ft | 362 kts | 119° |
| 2026-05-07 14:07 | 49.76468 | 9.08688 | 13201 ft | 367 kts | 112° |
| 2026-05-07 14:07 | 49.75672 | 9.12460 | 13890 ft | 370 kts | 103° |
| 2026-05-07 14:07 | 49.74961 | 9.16310 | 14517 ft | 374 kts | 111° |
| 2026-05-07 14:07 | 49.73805 | 9.19926 | 15132 ft | 378 kts | 122° |
| 2026-05-07 14:08 | 49.72204 | 9.23178 | 15747 ft | 381 kts | 132° |
| 2026-05-07 14:08 | 49.70448 | 9.26264 | 16371 ft | 385 kts | 132° |
| 2026-05-07 14:08 | 49.68675 | 9.29382 | 16991 ft | 388 kts | 132° |
| 2026-05-07 14:08 | 49.66904 | 9.32493 | 17583 ft | 392 kts | 132° |
| 2026-05-07 14:09 | 49.65100 | 9.35664 | 18191 ft | 395 kts | 132° |
| 2026-05-07 14:09 | 49.63276 | 9.38871 | 18716 ft | 398 kts | 133° |
| 2026-05-07 14:09 | 49.61216 | 9.41821 | 19238 ft | 400 kts | 144° |
| 2026-05-07 14:09 | 49.58918 | 9.44132 | 19743 ft | 401 kts | 151° |
| 2026-05-07 14:10 | 49.56497 | 9.46328 | 20258 ft | 405 kts | 151° |
| 2026-05-07 14:10 | 49.54032 | 9.48566 | 20727 ft | 409 kts | 151° |
| 2026-05-07 14:10 | 49.51570 | 9.50809 | 21222 ft | 412 kts | 151° |
| 2026-05-07 14:10 | 49.49101 | 9.53067 | 21720 ft | 415 kts | 151° |
| 2026-05-07 14:11 | 49.46606 | 9.55346 | 22222 ft | 418 kts | 151° |
| 2026-05-07 14:11 | 49.44941 | 9.56864 | 22548 ft | 420 kts | 151° |
| 2026-05-07 14:11 | 49.42422 | 9.59161 | 23036 ft | 423 kts | 151° |
| 2026-05-07 14:11 | 49.39883 | 9.61476 | 23518 ft | 426 kts | 151° |
| 2026-05-07 14:12 | 49.37333 | 9.63794 | 23934 ft | 429 kts | 151° |
| 2026-05-07 14:12 | 49.33992 | 9.67091 | 24455 ft | 433 kts | 143° |
| 2026-05-07 14:12 | 49.32454 | 9.69145 | 24713 ft | 437 kts | 137° |
| 2026-05-07 14:12 | 49.30303 | 9.72447 | 25105 ft | 440 kts | 136° |
| 2026-05-07 14:13 | 49.28135 | 9.75778 | 25510 ft | 442 kts | 136° |
| 2026-05-07 14:13 | 49.25955 | 9.79111 | 25918 ft | 444 kts | 136° |
| 2026-05-07 14:13 | 49.23759 | 9.82458 | 26289 ft | 447 kts | 136° |
| 2026-05-07 14:13 | 49.21573 | 9.85787 | 26644 ft | 450 kts | 136° |
| 2026-05-07 14:14 | 49.19345 | 9.89174 | 27028 ft | 452 kts | 136° |
| 2026-05-07 14:14 | 49.17106 | 9.92570 | 27426 ft | 454 kts | 136° |
| 2026-05-07 14:14 | 49.14856 | 9.95975 | 27798 ft | 457 kts | 136° |
| 2026-05-07 14:14 | 49.12588 | 9.99404 | 28177 ft | 459 kts | 136° |
| 2026-05-07 14:15 | 49.10316 | 10.02835 | 28536 ft | 460 kts | 136° |
| 2026-05-07 14:15 | 49.08029 | 10.06280 | 28882 ft | 462 kts | 136° |
| 2026-05-07 14:15 | 49.05740 | 10.09720 | 29280 ft | 464 kts | 137° |
| 2026-05-07 14:15 | 49.03404 | 10.13137 | 29651 ft | 465 kts | 138° |
| 2026-05-07 14:16 | 49.01026 | 10.16514 | 30014 ft | 467 kts | 138° |
| 2026-05-07 14:16 | 48.98627 | 10.19857 | 30339 ft | 469 kts | 139° |
| 2026-05-07 14:16 | 48.96216 | 10.23197 | 30700 ft | 468 kts | 139° |
| 2026-05-07 14:16 | 48.93813 | 10.26538 | 31111 ft | 468 kts | 138° |
| 2026-05-07 14:17 | 48.91420 | 10.29892 | 31505 ft | 467 kts | 138° |
| 2026-05-07 14:17 | 48.89037 | 10.33249 | 31899 ft | 466 kts | 138° |
| 2026-05-07 14:17 | 48.86658 | 10.36604 | 32302 ft | 466 kts | 138° |
| 2026-05-07 14:17 | 48.84287 | 10.39947 | 32690 ft | 465 kts | 139° |
| 2026-05-07 14:18 | 48.81963 | 10.43268 | 33062 ft | 465 kts | 137° |
| 2026-05-07 14:18 | 48.79681 | 10.46745 | 33459 ft | 464 kts | 135° |
| 2026-05-07 14:18 | 48.77461 | 10.50310 | 33841 ft | 464 kts | 134° |
| 2026-05-07 14:18 | 48.75279 | 10.53905 | 34165 ft | 464 kts | 134° |
| 2026-05-07 14:19 | 48.73102 | 10.57507 | 34452 ft | 463 kts | 134° |
| 2026-05-07 14:19 | 48.70917 | 10.61093 | 34729 ft | 463 kts | 135° |
| 2026-05-07 14:19 | 48.68718 | 10.64649 | 35000 ft | 463 kts | 135° |
| 2026-05-07 14:19 | 48.66499 | 10.68193 | 35262 ft | 463 kts | 136° |
| 2026-05-07 14:20 | 48.64273 | 10.71716 | 35528 ft | 463 kts | 136° |
| 2026-05-07 14:20 | 48.62037 | 10.75238 | 35796 ft | 463 kts | 136° |
| 2026-05-07 14:20 | 48.59745 | 10.78630 | 36050 ft | 461 kts | 142° |
| 2026-05-07 14:20 | 48.57169 | 10.81499 | 36278 ft | 458 kts | 152° |
| 2026-05-07 14:21 | 48.54381 | 10.83793 | 36501 ft | 456 kts | 156° |
| 2026-05-07 14:21 | 48.51560 | 10.85986 | 36710 ft | 456 kts | 156° |
| 2026-05-07 14:21 | 48.48743 | 10.88177 | 36937 ft | 456 kts | 156° |
| 2026-05-07 14:22 | 48.43139 | 10.92536 | 37030 ft | 455 kts | 156° |
| 2026-05-07 14:22 | 48.37490 | 10.96933 | 37030 ft | 454 kts | 156° |
| 2026-05-07 14:23 | 48.31917 | 11.01266 | 37029 ft | 454 kts | 156° |
| 2026-05-07 14:23 | 48.26309 | 11.05620 | 37029 ft | 454 kts | 156° |
| 2026-05-07 14:24 | 48.20695 | 11.09949 | 37030 ft | 454 kts | 156° |
| 2026-05-07 14:24 | 48.15069 | 11.14270 | 37032 ft | 454 kts | 156° |
| 2026-05-07 14:25 | 48.09446 | 11.18583 | 37020 ft | 454 kts | 156° |
| 2026-05-07 14:25 | 48.03821 | 11.22896 | 37037 ft | 454 kts | 156° |
| 2026-05-07 14:26 | 47.98198 | 11.27202 | 37046 ft | 454 kts | 156° |
| 2026-05-07 14:26 | 47.92562 | 11.31503 | 37046 ft | 454 kts | 156° |
| 2026-05-07 14:27 | 47.86938 | 11.35777 | 37031 ft | 454 kts | 156° |
| 2026-05-07 14:27 | 47.81332 | 11.40139 | 37024 ft | 455 kts | 155° |
| 2026-05-07 14:28 | 47.75830 | 11.44664 | 37010 ft | 455 kts | 154° |
| 2026-05-07 14:28 | 47.70267 | 11.49278 | 37019 ft | 455 kts | 155° |
| 2026-05-07 14:29 | 47.64724 | 11.53806 | 37020 ft | 455 kts | 155° |
| 2026-05-07 14:29 | 47.59206 | 11.58265 | 37009 ft | 455 kts | 155° |
| 2026-05-07 14:30 | 47.53643 | 11.62743 | 37009 ft | 455 kts | 155° |
| 2026-05-07 14:30 | 47.48091 | 11.67208 | 37005 ft | 454 kts | 155° |
| 2026-05-07 14:31 | 47.42543 | 11.71662 | 37001 ft | 454 kts | 155° |
| 2026-05-07 14:31 | 47.36852 | 11.75546 | 36986 ft | 447 kts | 168° |
| 2026-05-07 14:32 | 47.30785 | 11.76691 | 36991 ft | 436 kts | 186° |
| 2026-05-07 14:32 | 47.24739 | 11.76329 | 36992 ft | 436 kts | 186° |
| 2026-05-07 14:33 | 47.18678 | 11.75998 | 36987 ft | 436 kts | 186° |
| 2026-05-07 14:33 | 47.12605 | 11.75681 | 36996 ft | 436 kts | 186° |
| 2026-05-07 14:34 | 47.06549 | 11.75351 | 36992 ft | 434 kts | 186° |
| 2026-05-07 14:34 | 47.00504 | 11.75019 | 36978 ft | 436 kts | 186° |
| 2026-05-07 14:35 | 46.94450 | 11.74678 | 36971 ft | 435 kts | 187° |
| 2026-05-07 14:35 | 46.88435 | 11.74351 | 36980 ft | 435 kts | 186° |
| 2026-05-07 14:36 | 46.82375 | 11.74018 | 36980 ft | 435 kts | 186° |
| 2026-05-07 14:36 | 46.76330 | 11.73690 | 36958 ft | 435 kts | 187° |
| 2026-05-07 14:37 | 46.70285 | 11.73359 | 36969 ft | 434 kts | 186° |
| 2026-05-07 14:37 | 46.61212 | 11.72877 | 36995 ft | 434 kts | 187° |
| 2026-05-07 14:38 | 46.55177 | 11.72548 | 36965 ft | 434 kts | 187° |
| 2026-05-07 14:38 | 46.49135 | 11.72209 | 36967 ft | 434 kts | 187° |
| 2026-05-07 14:39 | 46.43104 | 11.71865 | 36970 ft | 434 kts | 187° |
| 2026-05-07 14:39 | 46.37068 | 11.71526 | 36981 ft | 434 kts | 187° |
| 2026-05-07 14:40 | 46.31086 | 11.71209 | 36983 ft | 434 kts | 187° |
| 2026-05-07 14:40 | 46.25017 | 11.70891 | 36986 ft | 433 kts | 187° |
| 2026-05-07 14:41 | 46.19035 | 11.70572 | 36995 ft | 433 kts | 187° |
| 2026-05-07 14:41 | 46.13002 | 11.70242 | 36984 ft | 433 kts | 187° |
| 2026-05-07 14:42 | 46.06981 | 11.69913 | 36988 ft | 433 kts | 187° |
| 2026-05-07 14:42 | 46.00957 | 11.69598 | 36993 ft | 433 kts | 187° |
| 2026-05-07 14:43 | 45.94933 | 11.69279 | 36976 ft | 434 kts | 187° |
| 2026-05-07 14:43 | 45.88909 | 11.68957 | 36981 ft | 433 kts | 187° |
| 2026-05-07 14:44 | 45.82891 | 11.68642 | 36988 ft | 433 kts | 187° |
| 2026-05-07 14:44 | 45.76861 | 11.68321 | 36965 ft | 433 kts | 188° |
| 2026-05-07 14:45 | 45.70845 | 11.68002 | 36962 ft | 433 kts | 188° |
| 2026-05-07 14:45 | 45.64816 | 11.67687 | 36967 ft | 433 kts | 188° |
| 2026-05-07 14:46 | 45.58824 | 11.67328 | 36975 ft | 433 kts | 188° |
| 2026-05-07 14:46 | 45.52806 | 11.66863 | 36962 ft | 432 kts | 189° |
| 2026-05-07 14:47 | 45.46800 | 11.66399 | 36982 ft | 433 kts | 189° |
| 2026-05-07 14:47 | 45.40790 | 11.65958 | 36984 ft | 432 kts | 188° |
| 2026-05-07 14:48 | 45.34784 | 11.65528 | 36966 ft | 431 kts | 189° |
| 2026-05-07 14:48 | 45.28786 | 11.65103 | 36978 ft | 431 kts | 189° |
| 2026-05-07 14:49 | 45.22794 | 11.64675 | 36973 ft | 430 kts | 189° |
| 2026-05-07 14:49 | 45.16820 | 11.64240 | 36952 ft | 430 kts | 189° |
| 2026-05-07 14:50 | 45.10863 | 11.64111 | 36972 ft | 432 kts | 185° |
| 2026-05-07 14:50 | 45.04843 | 11.64494 | 36979 ft | 433 kts | 183° |
| 2026-05-07 14:51 | 44.98827 | 11.64924 | 36983 ft | 432 kts | 184° |
| 2026-05-07 14:51 | 44.92828 | 11.65237 | 36975 ft | 431 kts | 184° |
| 2026-05-07 14:52 | 44.86835 | 11.65504 | 36981 ft | 430 kts | 184° |
| 2026-05-07 14:52 | 44.80851 | 11.65769 | 36982 ft | 430 kts | 184° |
| 2026-05-07 14:53 | 44.74868 | 11.66042 | 36976 ft | 429 kts | 184° |
| 2026-05-07 14:53 | 44.68899 | 11.66324 | 36982 ft | 429 kts | 184° |
| 2026-05-07 14:54 | 44.62938 | 11.66603 | 36985 ft | 429 kts | 184° |
| 2026-05-07 14:54 | 44.57007 | 11.66881 | 36968 ft | 429 kts | 184° |
| 2026-05-07 14:55 | 44.51000 | 11.67813 | 36976 ft | 433 kts | 178° |
| 2026-05-07 14:55 | 44.45076 | 11.69022 | 36979 ft | 433 kts | 178° |
| 2026-05-07 14:56 | 44.39119 | 11.70228 | 36966 ft | 432 kts | 178° |
| 2026-05-07 14:56 | 44.33167 | 11.71425 | 36974 ft | 432 kts | 178° |
| 2026-05-07 14:57 | 44.27214 | 11.72611 | 36978 ft | 432 kts | 178° |
| 2026-05-07 14:57 | 44.21252 | 11.73800 | 36992 ft | 432 kts | 178° |
| 2026-05-07 14:58 | 44.15298 | 11.75003 | 36988 ft | 432 kts | 178° |
| 2026-05-07 14:58 | 44.09352 | 11.76196 | 36997 ft | 432 kts | 178° |
| 2026-05-07 14:59 | 44.04402 | 11.77175 | 36997 ft | 432 kts | 178° |
| 2026-05-07 14:59 | 43.98448 | 11.78348 | 36975 ft | 431 kts | 178° |
| 2026-05-07 15:00 | 43.92502 | 11.79526 | 36998 ft | 431 kts | 178° |
| 2026-05-07 15:00 | 43.86562 | 11.80696 | 36992 ft | 431 kts | 178° |
| 2026-05-07 15:01 | 43.80613 | 11.81865 | 36976 ft | 432 kts | 179° |
| 2026-05-07 15:01 | 43.74669 | 11.83198 | 36990 ft | 435 kts | 175° |
| 2026-05-07 15:02 | 43.68754 | 11.85099 | 36999 ft | 437 kts | 173° |
| 2026-05-07 15:02 | 43.62859 | 11.87152 | 36999 ft | 437 kts | 173° |
| 2026-05-07 15:03 | 43.56956 | 11.89109 | 36986 ft | 436 kts | 174° |
| 2026-05-07 15:03 | 43.51054 | 11.90967 | 36988 ft | 435 kts | 174° |
| 2026-05-07 15:04 | 43.48094 | 11.91890 | 36475 ft | 438 kts | 174° |
| 2026-05-07 15:04 | 43.45077 | 11.92830 | 35421 ft | 448 kts | 174° |
| 2026-05-07 15:04 | 43.42018 | 11.93788 | 34562 ft | 452 kts | 174° |
| 2026-05-07 15:04 | 43.38945 | 11.94756 | 33721 ft | 454 kts | 175° |
| 2026-05-07 15:05 | 43.35868 | 11.95729 | 32771 ft | 456 kts | 175° |
| 2026-05-07 15:05 | 43.32766 | 11.96712 | 31809 ft | 459 kts | 175° |
| 2026-05-07 15:05 | 43.29693 | 11.97688 | 31099 ft | 458 kts | 175° |
| 2026-05-07 15:05 | 43.26564 | 11.98682 | 30498 ft | 454 kts | 175° |
| 2026-05-07 15:06 | 43.23535 | 11.99640 | 29889 ft | 451 kts | 175° |
| 2026-05-07 15:06 | 43.20489 | 12.00598 | 29267 ft | 447 kts | 175° |
| 2026-05-07 15:06 | 43.17431 | 12.01559 | 28677 ft | 440 kts | 175° |
| 2026-05-07 15:06 | 43.14504 | 12.02477 | 28112 ft | 435 kts | 175° |
| 2026-05-07 15:07 | 43.11569 | 12.03399 | 27550 ft | 431 kts | 174° |
| 2026-05-07 15:07 | 43.08668 | 12.04308 | 26976 ft | 426 kts | 174° |
| 2026-05-07 15:07 | 43.05790 | 12.05208 | 26440 ft | 421 kts | 174° |
| 2026-05-07 15:07 | 43.02956 | 12.06091 | 25894 ft | 417 kts | 174° |
| 2026-05-07 15:08 | 43.00136 | 12.06970 | 25361 ft | 413 kts | 174° |
| 2026-05-07 15:08 | 42.97353 | 12.07839 | 24849 ft | 409 kts | 174° |
| 2026-05-07 15:08 | 42.94588 | 12.08702 | 24346 ft | 404 kts | 174° |
| 2026-05-07 15:08 | 42.91864 | 12.09549 | 23866 ft | 400 kts | 174° |
| 2026-05-07 15:09 | 42.89165 | 12.10387 | 23360 ft | 396 kts | 173° |
| 2026-05-07 15:09 | 42.86497 | 12.11217 | 22885 ft | 390 kts | 173° |
| 2026-05-07 15:09 | 42.83878 | 12.12032 | 22440 ft | 384 kts | 173° |
| 2026-05-07 15:09 | 42.81300 | 12.12830 | 22003 ft | 377 kts | 173° |
| 2026-05-07 15:10 | 42.78760 | 12.13615 | 21573 ft | 372 kts | 173° |
| 2026-05-07 15:10 | 42.76261 | 12.14387 | 21324 ft | 362 kts | 173° |
| 2026-05-07 15:10 | 42.73849 | 12.15138 | 21185 ft | 350 kts | 173° |
| 2026-05-07 15:10 | 42.71532 | 12.15858 | 20927 ft | 343 kts | 172° |
| 2026-05-07 15:11 | 42.69277 | 12.16906 | 20668 ft | 345 kts | 160° |
| 2026-05-07 15:11 | 42.67174 | 12.18505 | 20416 ft | 347 kts | 155° |
| 2026-05-07 15:11 | 42.65099 | 12.20167 | 20154 ft | 345 kts | 155° |
| 2026-05-07 15:11 | 42.63037 | 12.21819 | 19908 ft | 344 kts | 154° |
| 2026-05-07 15:12 | 42.60980 | 12.23466 | 19660 ft | 342 kts | 154° |
| 2026-05-07 15:12 | 42.58935 | 12.25104 | 19525 ft | 342 kts | 154° |
| 2026-05-07 15:12 | 42.56883 | 12.26744 | 19277 ft | 341 kts | 154° |
| 2026-05-07 15:12 | 42.54853 | 12.28362 | 19011 ft | 338 kts | 154° |
| 2026-05-07 15:13 | 42.52829 | 12.29971 | 18754 ft | 337 kts | 154° |
| 2026-05-07 15:13 | 42.50814 | 12.31574 | 18503 ft | 335 kts | 154° |
| 2026-05-07 15:13 | 42.48803 | 12.33175 | 18222 ft | 334 kts | 154° |
| 2026-05-07 15:13 | 42.46808 | 12.34762 | 17930 ft | 332 kts | 154° |
| 2026-05-07 15:14 | 42.44808 | 12.36352 | 17673 ft | 331 kts | 154° |
| 2026-05-07 15:14 | 42.42831 | 12.37926 | 17414 ft | 329 kts | 154° |
| 2026-05-07 15:14 | 42.40861 | 12.39495 | 17152 ft | 328 kts | 154° |
| 2026-05-07 15:14 | 42.38900 | 12.41047 | 16881 ft | 326 kts | 156° |
| 2026-05-07 15:15 | 42.36831 | 12.42191 | 16642 ft | 318 kts | 170° |
| 2026-05-07 15:15 | 42.34674 | 12.42625 | 16398 ft | 311 kts | 183° |
| 2026-05-07 15:15 | 42.32545 | 12.42393 | 16154 ft | 306 kts | 194° |
| 2026-05-07 15:15 | 42.30456 | 12.41890 | 15919 ft | 305 kts | 193° |
| 2026-05-07 15:16 | 42.28369 | 12.41391 | 15681 ft | 304 kts | 193° |
| 2026-05-07 15:16 | 42.26285 | 12.40893 | 15440 ft | 303 kts | 193° |
| 2026-05-07 15:16 | 42.24212 | 12.40398 | 15206 ft | 302 kts | 193° |
| 2026-05-07 15:16 | 42.22137 | 12.39904 | 14966 ft | 301 kts | 193° |
| 2026-05-07 15:17 | 42.20079 | 12.39415 | 14724 ft | 300 kts | 193° |
| 2026-05-07 15:17 | 42.18020 | 12.38927 | 14487 ft | 299 kts | 193° |
| 2026-05-07 15:17 | 42.15970 | 12.38441 | 14261 ft | 299 kts | 193° |
| 2026-05-07 15:17 | 42.13927 | 12.37960 | 14019 ft | 298 kts | 192° |
| 2026-05-07 15:18 | 42.11917 | 12.37487 | 13786 ft | 297 kts | 192° |
| 2026-05-07 15:18 | 42.09886 | 12.37006 | 13536 ft | 296 kts | 192° |
| 2026-05-07 15:18 | 42.07858 | 12.36528 | 13301 ft | 295 kts | 192° |
| 2026-05-07 15:18 | 42.05834 | 12.36053 | 13068 ft | 294 kts | 192° |
| 2026-05-07 15:19 | 42.03824 | 12.35579 | 12841 ft | 294 kts | 192° |
| 2026-05-07 15:19 | 42.01833 | 12.35107 | 12666 ft | 285 kts | 192° |
| 2026-05-07 15:19 | 41.99913 | 12.34663 | 12518 ft | 276 kts | 189° |
| 2026-05-07 15:19 | 41.98008 | 12.34668 | 12287 ft | 273 kts | 174° |
| 2026-05-07 15:20 | 41.96173 | 12.35316 | 12032 ft | 273 kts | 165° |
| 2026-05-07 15:20 | 41.94360 | 12.36081 | 11775 ft | 272 kts | 165° |
| 2026-05-07 15:20 | 41.92551 | 12.36836 | 11522 ft | 271 kts | 165° |
| 2026-05-07 15:20 | 41.90757 | 12.37580 | 11265 ft | 270 kts | 165° |
| 2026-05-07 15:21 | 41.88988 | 12.38315 | 11033 ft | 269 kts | 165° |
| 2026-05-07 15:21 | 41.87180 | 12.39065 | 10793 ft | 268 kts | 165° |
| 2026-05-07 15:21 | 41.85427 | 12.39795 | 10545 ft | 265 kts | 165° |
| 2026-05-07 15:21 | 41.83685 | 12.40523 | 10326 ft | 259 kts | 165° |
| 2026-05-07 15:22 | 41.81984 | 12.41237 | 10081 ft | 254 kts | 164° |
| 2026-05-07 15:22 | 41.80308 | 12.41941 | 9881 ft | 251 kts | 164° |
| 2026-05-07 15:22 | 41.78649 | 12.42634 | 9759 ft | 250 kts | 164° |
| 2026-05-07 15:22 | 41.76986 | 12.43326 | 9623 ft | 250 kts | 164° |
| 2026-05-07 15:23 | 41.75331 | 12.44014 | 9492 ft | 249 kts | 165° |
| 2026-05-07 15:23 | 41.73678 | 12.44700 | 9370 ft | 248 kts | 165° |
| 2026-05-07 15:23 | 41.72028 | 12.45387 | 9222 ft | 248 kts | 164° |
| 2026-05-07 15:23 | 41.70379 | 12.46071 | 9097 ft | 248 kts | 164° |
| 2026-05-07 15:24 | 41.68736 | 12.46751 | 8982 ft | 247 kts | 163° |
| 2026-05-07 15:24 | 41.67094 | 12.47431 | 8877 ft | 247 kts | 163° |
| 2026-05-07 15:24 | 41.65446 | 12.48110 | 8766 ft | 248 kts | 163° |
| 2026-05-07 15:24 | 41.63793 | 12.48789 | 8602 ft | 249 kts | 163° |
| 2026-05-07 15:25 | 41.62143 | 12.49469 | 8438 ft | 248 kts | 163° |
| 2026-05-07 15:25 | 41.60493 | 12.50151 | 8255 ft | 247 kts | 163° |
| 2026-05-07 15:25 | 41.58850 | 12.50830 | 8090 ft | 247 kts | 163° |
| 2026-05-07 15:25 | 41.57207 | 12.51506 | 7923 ft | 247 kts | 163° |
| 2026-05-07 15:26 | 41.55571 | 12.52177 | 7746 ft | 246 kts | 163° |
| 2026-05-07 15:26 | 41.53943 | 12.52841 | 7579 ft | 245 kts | 163° |
| 2026-05-07 15:26 | 41.52304 | 12.53507 | 7404 ft | 244 kts | 163° |
| 2026-05-07 15:26 | 41.50682 | 12.54168 | 7246 ft | 244 kts | 161° |
| 2026-05-07 15:27 | 41.49086 | 12.54828 | 7050 ft | 242 kts | 161° |
| 2026-05-07 15:27 | 41.47479 | 12.55495 | 6858 ft | 242 kts | 161° |
| 2026-05-07 15:27 | 41.45860 | 12.56119 | 6670 ft | 242 kts | 169° |
| 2026-05-07 15:27 | 41.44196 | 12.55898 | 6493 ft | 244 kts | 201° |
| 2026-05-07 15:28 | 41.42881 | 12.54504 | 6303 ft | 247 kts | 234° |
| 2026-05-07 15:28 | 41.42225 | 12.52384 | 6110 ft | 249 kts | 252° |
| 2026-05-07 15:28 | 41.41717 | 12.50185 | 5924 ft | 248 kts | 252° |
| 2026-05-07 15:28 | 41.41225 | 12.47973 | 5726 ft | 249 kts | 256° |
| 2026-05-07 15:29 | 41.41290 | 12.45729 | 5528 ft | 240 kts | 291° |
| 2026-05-07 15:29 | 41.42225 | 12.44008 | 5353 ft | 226 kts | 325° |
| 2026-05-07 15:29 | 41.43608 | 12.43185 | 5216 ft | 211 kts | 345° |
| 2026-05-07 15:29 | 41.44958 | 12.42631 | 5055 ft | 196 kts | 344° |
| 2026-05-07 15:30 | 41.46224 | 12.42108 | 4905 ft | 184 kts | 345° |
| 2026-05-07 15:30 | 41.47412 | 12.41617 | 4796 ft | 171 kts | 345° |
| 2026-05-07 15:30 | 41.48499 | 12.41167 | 4656 ft | 157 kts | 345° |
| 2026-05-07 15:30 | 41.49532 | 12.40740 | 4553 ft | 154 kts | 345° |
| 2026-05-07 15:31 | 41.50556 | 12.40317 | 4443 ft | 154 kts | 345° |
| 2026-05-07 15:31 | 41.51579 | 12.39894 | 4330 ft | 154 kts | 345° |
| 2026-05-07 15:31 | 41.52599 | 12.39472 | 4230 ft | 153 kts | 345° |
| 2026-05-07 15:31 | 41.53611 | 12.39053 | 4130 ft | 151 kts | 343° |
| 2026-05-07 15:32 | 41.54616 | 12.38636 | 4022 ft | 151 kts | 344° |
| 2026-05-07 15:32 | 41.55616 | 12.38221 | 3919 ft | 150 kts | 345° |
| 2026-05-07 15:32 | 41.56604 | 12.37812 | 3813 ft | 151 kts | 345° |
| 2026-05-07 15:32 | 41.57606 | 12.37396 | 3712 ft | 150 kts | 346° |
| 2026-05-07 15:33 | 41.58604 | 12.36982 | 3604 ft | 150 kts | 345° |
| 2026-05-07 15:33 | 41.59604 | 12.36567 | 3503 ft | 150 kts | 344° |
| 2026-05-07 15:33 | 41.60599 | 12.36154 | 3400 ft | 150 kts | 345° |
| 2026-05-07 15:33 | 41.61593 | 12.35741 | 3292 ft | 149 kts | 344° |
| 2026-05-07 15:34 | 41.62583 | 12.35330 | 3189 ft | 149 kts | 345° |
| 2026-05-07 15:34 | 41.63570 | 12.34920 | 3086 ft | 149 kts | 346° |
| 2026-05-07 15:34 | 41.64558 | 12.34510 | 2983 ft | 148 kts | 344° |
| 2026-05-07 15:34 | 41.65539 | 12.34102 | 2883 ft | 147 kts | 345° |
| 2026-05-07 15:35 | 41.66518 | 12.33694 | 2777 ft | 147 kts | 345° |
| 2026-05-07 15:35 | 41.67494 | 12.33288 | 2725 ft | 147 kts | 345° |
| 2026-05-07 15:35 | 41.68468 | 12.32883 | 2585 ft | 147 kts | 344° |
| 2026-05-07 15:35 | 41.69441 | 12.32478 | 2415 ft | 146 kts | 344° |
| 2026-05-07 15:36 | 41.70408 | 12.32075 | 2235 ft | 145 kts | 345° |
| 2026-05-07 15:36 | 41.71368 | 12.31675 | 2054 ft | 144 kts | 343° |
| 2026-05-07 15:36 | 41.72322 | 12.31277 | 1861 ft | 143 kts | 343° |
| 2026-05-07 15:36 | 41.73267 | 12.30883 | 1687 ft | 142 kts | 343° |
| 2026-05-07 15:37 | 41.74209 | 12.30491 | 1482 ft | 141 kts | 342° |
| 2026-05-07 15:37 | 41.75141 | 12.30103 | 1286 ft | 140 kts | 341° |
| 2026-05-07 15:37 | 41.76069 | 12.29714 | 1077 ft | 139 kts | 340° |
| 2026-05-07 15:37 | 41.76991 | 12.29320 | 903 ft | 137 kts | 340° |
| 2026-05-07 15:38 | 41.77902 | 12.28941 | 736 ft | 137 kts | 340° |
| 2026-05-07 15:38 | 41.78809 | 12.28579 | 564 ft | 136 kts | 340° |
| 2026-05-07 15:38 | 41.79720 | 12.28208 | 371 ft | 136 kts | 338° |
| 2026-05-07 15:38 | 41.80617 | 12.27836 | 207 ft | 135 kts | 336° |
| 2026-05-07 15:39 | 41.81507 | 12.27452 | 26 ft | 130 kts | 338° |
| 2026-05-07 15:39 | 41.82295 | 12.27103 | 29 ft | 115 kts | 341° |
| 2026-05-07 15:39 | 41.83137 | 12.26768 | 596 ft | 128 kts | 338° |
| 2026-05-07 15:39 | 41.84007 | 12.26415 | 1409 ft | 134 kts | 341° |
| 2026-05-07 15:40 | 41.84927 | 12.26045 | 2198 ft | 141 kts | 343° |
| 2026-05-07 15:40 | 41.85936 | 12.25584 | 2612 ft | 173 kts | 341° |
| 2026-05-07 15:40 | 41.87168 | 12.24955 | 2860 ft | 197 kts | 340° |
| 2026-05-07 15:40 | 41.88464 | 12.24287 | 3415 ft | 200 kts | 340° |
| 2026-05-07 15:41 | 41.89758 | 12.23617 | 3881 ft | 210 kts | 340° |
| 2026-05-07 15:41 | 41.91185 | 12.22892 | 4143 ft | 226 kts | 340° |
| 2026-05-07 15:41 | 41.92682 | 12.22133 | 4760 ft | 233 kts | 340° |
| 2026-05-07 15:41 | 41.94192 | 12.21374 | 4891 ft | 230 kts | 340° |
| 2026-05-07 15:42 | 41.95694 | 12.20619 | 4599 ft | 230 kts | 340° |
| 2026-05-07 15:42 | 41.97187 | 12.19864 | 4340 ft | 227 kts | 340° |
| 2026-05-07 15:42 | 41.98661 | 12.19131 | 4097 ft | 224 kts | 340° |
| 2026-05-07 15:42 | 42.00125 | 12.18432 | 4160 ft | 224 kts | 346° |
| 2026-05-07 15:43 | 42.01642 | 12.18566 | 4147 ft | 222 kts | 27° |
| 2026-05-07 15:43 | 42.02760 | 12.19965 | 4006 ft | 223 kts | 56° |
| 2026-05-07 15:43 | 42.03298 | 12.21151 | 3990 ft | 224 kts | 60° |
| 2026-05-07 15:43 | 42.04062 | 12.22985 | 3988 ft | 225 kts | 60° |
| 2026-05-07 15:44 | 42.04825 | 12.24820 | 3990 ft | 225 kts | 60° |
| 2026-05-07 15:44 | 42.05582 | 12.26667 | 3987 ft | 225 kts | 64° |
| 2026-05-07 15:44 | 42.06177 | 12.28611 | 3971 ft | 225 kts | 76° |
| 2026-05-07 15:44 | 42.06111 | 12.30686 | 3987 ft | 226 kts | 110° |
| 2026-05-07 15:45 | 42.05246 | 12.32434 | 3989 ft | 228 kts | 132° |
| 2026-05-07 15:45 | 42.04098 | 12.33907 | 3978 ft | 228 kts | 146° |
| 2026-05-07 15:45 | 42.02719 | 12.34967 | 3982 ft | 229 kts | 153° |
| 2026-05-07 15:45 | 42.01286 | 12.35903 | 3982 ft | 229 kts | 154° |
| 2026-05-07 15:46 | 41.98406 | 12.37738 | 3980 ft | 229 kts | 154° |
| 2026-05-07 15:46 | 41.96961 | 12.38652 | 3981 ft | 229 kts | 154° |
| 2026-05-07 15:46 | 41.95517 | 12.39564 | 3981 ft | 229 kts | 154° |
| 2026-05-07 15:47 | 41.94074 | 12.40473 | 3982 ft | 229 kts | 154° |
| 2026-05-07 15:47 | 41.92635 | 12.41375 | 3979 ft | 229 kts | 154° |
| 2026-05-07 15:47 | 41.91189 | 12.42288 | 3980 ft | 229 kts | 154° |
| 2026-05-07 15:47 | 41.89702 | 12.43045 | 3980 ft | 230 kts | 166° |
| 2026-05-07 15:48 | 41.88129 | 12.43469 | 3979 ft | 230 kts | 169° |
| 2026-05-07 15:48 | 41.86554 | 12.43832 | 3981 ft | 230 kts | 170° |
| 2026-05-07 15:48 | 41.84971 | 12.44190 | 3982 ft | 230 kts | 170° |
| 2026-05-07 15:48 | 41.83411 | 12.44541 | 3982 ft | 230 kts | 170° |
| 2026-05-07 15:49 | 41.81837 | 12.44894 | 3981 ft | 230 kts | 170° |
| 2026-05-07 15:49 | 41.80251 | 12.45251 | 3982 ft | 230 kts | 170° |
| 2026-05-07 15:49 | 41.78672 | 12.45605 | 3982 ft | 230 kts | 170° |
| 2026-05-07 15:49 | 41.77096 | 12.45960 | 3981 ft | 229 kts | 170° |
| 2026-05-07 15:50 | 41.75525 | 12.46313 | 4012 ft | 230 kts | 170° |
| 2026-05-07 15:50 | 41.73948 | 12.46665 | 3870 ft | 229 kts | 170° |
| 2026-05-07 15:50 | 41.72380 | 12.47017 | 3600 ft | 228 kts | 169° |
| 2026-05-07 15:50 | 41.70820 | 12.47353 | 3359 ft | 226 kts | 170° |
| 2026-05-07 15:51 | 41.69266 | 12.47669 | 3085 ft | 226 kts | 172° |
| 2026-05-07 15:51 | 41.67717 | 12.47501 | 2797 ft | 225 kts | 202° |
| 2026-05-07 15:51 | 41.66506 | 12.46241 | 2573 ft | 221 kts | 237° |
| 2026-05-07 15:51 | 41.65892 | 12.44352 | 2508 ft | 222 kts | 252° |
| 2026-05-07 15:52 | 41.65436 | 12.42371 | 2510 ft | 223 kts | 254° |
| 2026-05-07 15:52 | 41.64993 | 12.40376 | 2503 ft | 225 kts | 253° |
| 2026-05-07 15:52 | 41.64557 | 12.38360 | 2506 ft | 226 kts | 254° |
| 2026-05-07 15:52 | 41.64326 | 12.36296 | 2496 ft | 226 kts | 277° |
| 2026-05-07 15:53 | 41.64924 | 12.34389 | 2506 ft | 224 kts | 312° |
| 2026-05-07 15:53 | 41.66183 | 12.33229 | 2513 ft | 221 kts | 339° |
| 2026-05-07 15:53 | 41.67634 | 12.32524 | 2514 ft | 222 kts | 343° |
| 2026-05-07 15:53 | 41.69135 | 12.32064 | 2433 ft | 221 kts | 355° |
| 2026-05-07 15:54 | 41.70653 | 12.31891 | 2271 ft | 221 kts | 355° |
| 2026-05-07 15:54 | 41.72157 | 12.31494 | 1956 ft | 218 kts | 342° |
| 2026-05-07 15:54 | 41.73580 | 12.30829 | 1441 ft | 213 kts | 339° |
| 2026-05-07 15:54 | 41.74926 | 12.30179 | 1031 ft | 196 kts | 339° |
| 2026-05-07 15:55 | 41.76166 | 12.29670 | 902 ft | 175 kts | 342° |
| 2026-05-07 15:55 | 41.77209 | 12.29264 | 813 ft | 143 kts | 341° |
| 2026-05-07 15:55 | 41.78109 | 12.28882 | 582 ft | 133 kts | 339° |
| 2026-05-07 15:55 | 41.78983 | 12.28521 | 463 ft | 125 kts | 336° |
| 2026-05-07 15:56 | 41.79793 | 12.28176 | 306 ft | 123 kts | 337° |
| 2026-05-07 15:56 | 41.80661 | 12.27794 | 210 ft | 150 kts | 338° |
| 2026-05-07 15:56 | 41.81710 | 12.27372 | 27 ft | 149 kts | 340° |
| 2026-05-07 15:56 | 41.82565 | 12.26992 | 14 ft | 91 kts | 342° |
| 2026-05-07 15:57 | 41.82847 | 12.26876 | 19 ft | 0 kts | 342° |
| 2026-05-07 15:57 | 41.82940 | 12.26837 | 19 ft | 46 kts | 341° |
| 2026-05-07 15:57 | 41.83234 | 12.26550 | 16 ft | 38 kts | 312° |
| 2026-05-07 15:57 | 41.83236 | 12.26432 | 15 ft | 10 kts | 242° |
| 2026-05-07 15:58 | 41.83202 | 12.26405 | 15 ft | 4 kts | 159° |
| 2026-05-07 15:58 | 41.83180 | 12.26416 | 15 ft | 3 kts | 159° |
| 2026-05-07 15:58 | 41.83169 | 12.26420 | 16 ft | 3 kts | 169° |
| 2026-05-07 15:58 | 41.82131 | 12.27195 | 11 ft | 1 kts | 339° |